Terminal Aerodrome Forecast
Issued by NWS Mt. Holly, NJ

Home | Current Version | Previous Version | Text Only | Print | Product List | Glossary On
Versions: 1 2 3 4 5 6 7 8 9 10 11 12 13 14 15 16 17 18 19 20 21 22 23 24 25 26 27 28 29 30 31 32 33 34 35 36 37 38 39 40 41 42
000
FTAK31 PANC 250531
TAFABE
TAF
PABE 250531Z 2506/2606 20012KT P6SM BKN022
     FM251200 17015KT P6SM VCSH SCT005 BKN015 WS020/21035KT
     FM251500 18021G30KT 5SM -SHSN SCT005 OVC012 WS020/21045KT
     FM252200 19023KT 2SM -SN SCT002 OVC008 WS020/22055KT
     FM260400 20015KT P6SM VCSH SCT008 BKN025 OVC120=

USA.gov is the U.S. government's official web portal to all federal, state and local government web resources and services.